createdAt,value
2018-12-22T00:00:15.914Z,8.15
2018-12-22T00:02:43.375Z,8.50
2018-12-22T00:05:11.239Z,8.28
2018-12-22T00:07:39.319Z,8.38
2018-12-22T00:10:06.653Z,7.70
2018-12-22T00:12:34.003Z,8.50
2018-12-22T00:15:01.302Z,9.15
2018-12-22T00:17:28.675Z,9.10
2018-12-22T00:20:05.285Z,7.67
2018-12-22T00:22:32.715Z,7.78
2018-12-22T00:25:00.008Z,8.48
2018-12-22T00:27:27.401Z,8.70
2018-12-22T00:29:54.720Z,9.35
2018-12-22T00:32:22.096Z,8.93
2018-12-22T00:34:52.244Z,9.78
2018-12-22T00:37:20.308Z,10.00
2018-12-22T00:39:47.721Z,9.70
2018-12-22T00:42:15.088Z,10.40
2018-12-22T00:44:42.433Z,9.65
2018-12-22T00:47:09.796Z,11.12
2018-12-22T00:49:37.087Z,10.00
2018-12-22T00:52:04.977Z,10.98
2018-12-22T00:54:32.898Z,10.30
2018-12-22T00:57:04.175Z,10.20
2018-12-22T00:59:31.522Z,9.33
2018-12-22T01:01:58.846Z,10.08
2018-12-22T01:04:26.279Z,8.95
2018-12-22T01:06:58.085Z,7.00
2018-12-22T01:09:25.537Z,7.08
2018-12-22T01:11:53.353Z,8.28
2018-12-22T01:14:20.740Z,5.85
2018-12-22T01:16:48.118Z,6.97
2018-12-22T01:19:16.064Z,5.85
2018-12-22T01:21:45.424Z,5.45
2018-12-22T01:24:20.292Z,6.55
2018-12-22T01:26:47.624Z,5.55
2018-12-22T01:29:15.224Z,6.55
2018-12-22T01:31:42.524Z,6.87
2018-12-22T01:34:15.045Z,5.78
2018-12-22T01:36:43.291Z,6.40
2018-12-22T01:39:10.648Z,8.08
2018-12-22T01:41:37.985Z,6.75
2018-12-22T01:44:10.000Z,6.15
2018-12-22T01:46:37.278Z,7.75
2018-12-22T01:49:04.603Z,5.35
2018-12-22T01:51:31.916Z,5.80
2018-12-22T01:54:00.233Z,5.47
2018-12-22T01:56:28.094Z,5.78
2018-12-22T01:58:55.460Z,6.75
2018-12-22T02:01:23.279Z,6.55
2018-12-22T02:03:50.583Z,6.80
2018-12-22T02:06:18.794Z,6.80
2018-12-22T02:08:47.122Z,6.00
2018-12-22T02:11:14.468Z,6.33
2018-12-22T02:13:42.532Z,6.62
2018-12-22T02:16:09.888Z,7.00
2018-12-22T02:18:37.257Z,6.60
2018-12-22T02:21:04.982Z,8.23
2018-12-22T02:23:32.736Z,7.97
2018-12-22T02:26:04.789Z,9.20
2018-12-22T02:28:32.203Z,8.20
2018-12-22T02:30:59.560Z,10.03
2018-12-22T02:33:26.884Z,8.63
2018-12-22T02:35:54.348Z,10.45
2018-12-22T02:38:22.579Z,7.95
2018-12-22T02:40:51.364Z,10.45
2018-12-22T02:43:18.671Z,8.70
2018-12-22T02:45:46.378Z,10.50
2018-12-22T02:48:13.762Z,10.05
2018-12-22T02:50:43.027Z,8.85
2018-12-22T02:53:10.485Z,9.55
2018-12-22T02:55:37.946Z,9.00
2018-12-22T02:58:05.294Z,9.15
2018-12-22T03:00:32.606Z,8.73
2018-12-22T03:02:59.940Z,10.53
2018-12-22T03:05:27.327Z,10.48
2018-12-22T03:07:54.636Z,9.48
2018-12-22T03:10:22.193Z,8.43
2018-12-22T03:12:49.516Z,9.20
2018-12-22T03:15:16.924Z,9.68
2018-12-22T03:17:44.800Z,10.68
2018-12-22T03:20:12.693Z,9.70
2018-12-22T03:22:40.717Z,9.85
2018-12-22T03:25:08.120Z,9.00
2018-12-22T03:27:35.708Z,8.40
2018-12-22T03:30:03.219Z,8.00
2018-12-22T03:32:31.147Z,9.00
2018-12-22T03:34:58.499Z,9.93
2018-12-22T03:37:26.026Z,10.23
2018-12-22T03:39:58.188Z,10.98
2018-12-22T03:42:25.897Z,9.10
2018-12-22T03:44:53.367Z,8.98
2018-12-22T03:47:20.697Z,9.43
2018-12-22T03:49:48.035Z,10.28
2018-12-22T03:52:15.319Z,9.78
2018-12-22T03:54:42.608Z,8.53
2018-12-22T03:57:10.179Z,9.88
2018-12-22T03:59:37.564Z,8.68
2018-12-22T04:02:05.001Z,8.08
2018-12-22T04:04:32.324Z,8.90
2018-12-22T04:06:59.652Z,9.60
2018-12-22T04:09:27.259Z,10.78
2018-12-22T04:11:54.680Z,10.40
2018-12-22T04:14:22.603Z,10.53
2018-12-22T04:16:50.638Z,9.78
2018-12-22T04:19:17.975Z,11.25
2018-12-22T04:21:45.267Z,10.63
2018-12-22T04:24:12.646Z,9.68
2018-12-22T04:26:39.993Z,11.05
2018-12-22T04:29:08.012Z,9.65
2018-12-22T04:31:35.368Z,10.60
2018-12-22T04:34:02.842Z,11.20
2018-12-22T04:36:30.429Z,12.23
2018-12-22T04:39:01.954Z,10.40
2018-12-22T04:41:29.440Z,11.53
2018-12-22T04:43:56.780Z,9.58
2018-12-22T04:46:24.111Z,11.12
2018-12-22T04:48:51.426Z,10.70
2018-12-22T04:51:18.683Z,10.35
2018-12-22T04:53:50.094Z,8.65
2018-12-22T04:56:17.389Z,9.05
2018-12-22T04:58:44.703Z,8.45
2018-12-22T05:01:12.031Z,7.53
2018-12-22T05:03:39.364Z,6.87
2018-12-22T05:06:06.693Z,7.30
2018-12-22T05:08:34.000Z,5.85
2018-12-22T05:11:01.311Z,6.40
2018-12-22T05:13:28.640Z,6.78
2018-12-22T05:15:55.937Z,5.55
2018-12-22T05:18:23.236Z,5.40
2018-12-22T05:20:51.162Z,5.58
2018-12-22T05:23:19.297Z,4.47
2018-12-22T05:25:46.961Z,5.33
2018-12-22T05:28:19.431Z,4.80
2018-12-22T05:30:46.789Z,4.87
2018-12-22T05:33:14.198Z,4.75
2018-12-22T05:35:41.588Z,4.03
2018-12-22T05:38:08.888Z,4.22
2018-12-22T05:40:36.184Z,4.05
2018-12-22T05:43:03.471Z,4.00
2018-12-22T05:45:30.765Z,4.92
2018-12-22T05:47:58.164Z,6.10
2018-12-22T05:50:25.473Z,5.40
2018-12-22T05:52:53.035Z,6.53
2018-12-22T05:55:36.826Z,6.08
2018-12-22T05:58:04.128Z,5.72
2018-12-22T06:00:31.420Z,5.25
2018-12-22T06:02:59.339Z,6.08
2018-12-22T06:05:26.665Z,5.20
2018-12-22T06:07:53.984Z,5.20
2018-12-22T06:10:21.320Z,5.10
2018-12-22T06:12:48.653Z,5.90
2018-12-22T06:15:16.113Z,4.35
2018-12-22T06:17:43.985Z,4.12
2018-12-22T06:20:11.305Z,4.40
2018-12-22T06:22:39.244Z,3.77
2018-12-22T06:25:06.618Z,3.40
2018-12-22T06:27:33.947Z,4.10
2018-12-22T06:30:08.906Z,5.70
2018-12-22T06:32:30.576Z,5.08
2018-12-22T06:34:57.996Z,6.97
2018-12-22T06:37:25.956Z,6.90
2018-12-22T06:39:53.605Z,8.18
2018-12-22T06:42:21.534Z,7.97
2018-12-22T06:44:48.889Z,8.55
2018-12-22T06:47:16.928Z,7.17
2018-12-22T06:49:44.194Z,6.67
2018-12-22T06:52:11.492Z,6.30
2018-12-22T06:54:38.879Z,6.15
2018-12-22T06:57:06.139Z,5.72
2018-12-22T06:59:33.400Z,6.05
2018-12-22T07:02:00.699Z,5.37
2018-12-22T07:04:27.951Z,5.70
2018-12-22T07:06:55.257Z,4.90
2018-12-22T07:09:22.587Z,5.60
2018-12-22T07:11:49.968Z,5.35
2018-12-22T07:14:17.410Z,4.97
2018-12-22T07:16:44.791Z,4.97
2018-12-22T07:19:12.108Z,4.67
2018-12-22T07:21:39.388Z,4.62
2018-12-22T07:24:07.112Z,4.20
2018-12-22T07:26:34.449Z,4.25
2018-12-22T07:29:01.843Z,3.80
2018-12-22T07:31:29.115Z,3.65
2018-12-22T07:33:56.397Z,4.40
2018-12-22T07:36:25.264Z,4.25
2018-12-22T07:38:52.758Z,3.83
2018-12-22T07:41:20.124Z,4.35
2018-12-22T07:43:47.430Z,4.55
2018-12-22T07:46:14.725Z,3.20
2018-12-22T07:48:42.088Z,3.80
2018-12-22T07:51:09.380Z,4.50
2018-12-22T07:53:36.687Z,5.15
2018-12-22T07:56:04.091Z,4.10
2018-12-22T07:58:31.386Z,4.45
2018-12-22T08:00:58.779Z,4.75
2018-12-22T08:03:26.085Z,5.20
2018-12-22T08:05:53.405Z,5.20
2018-12-22T08:08:20.712Z,4.72
2018-12-22T08:10:48.032Z,5.67
2018-12-22T08:13:15.337Z,4.80
2018-12-22T08:15:43.151Z,5.28
2018-12-22T08:18:10.642Z,4.25
2018-12-22T08:20:37.928Z,3.58
2018-12-22T08:23:05.220Z,3.20
2018-12-22T08:25:32.529Z,3.17
2018-12-22T08:27:59.845Z,2.75
2018-12-22T08:30:27.164Z,3.35
2018-12-22T08:32:54.426Z,2.52
2018-12-22T08:35:21.727Z,3.08
2018-12-22T08:37:49.468Z,2.50
2018-12-22T08:40:16.762Z,2.15
2018-12-22T08:42:44.062Z,1.75
2018-12-22T08:45:11.369Z,1.85
2018-12-22T08:47:38.680Z,2.58
2018-12-22T08:50:09.366Z,1.55
2018-12-22T08:52:36.128Z,2.55
2018-12-22T08:55:03.413Z,2.98
2018-12-22T08:57:30.675Z,2.30
2018-12-22T08:59:57.968Z,1.82
2018-12-22T09:02:25.252Z,2.15
2018-12-22T09:04:52.533Z,2.20
2018-12-22T09:07:19.813Z,2.02
2018-12-22T09:09:47.055Z,2.05
2018-12-22T09:12:14.362Z,2.15
2018-12-22T09:14:41.682Z,1.75
2018-12-22T09:17:08.989Z,2.25
2018-12-22T09:19:36.246Z,2.25
2018-12-22T09:22:03.639Z,2.25
2018-12-22T09:24:30.932Z,2.27
2018-12-22T09:26:58.229Z,2.47
2018-12-22T09:29:25.504Z,2.30
2018-12-22T09:31:53.036Z,2.60
2018-12-22T09:34:20.364Z,3.10
2018-12-22T09:36:47.654Z,2.75
2018-12-22T09:39:15.020Z,2.45
2018-12-22T09:41:42.309Z,2.85
2018-12-22T09:44:09.612Z,3.05
2018-12-22T09:46:36.881Z,2.50
2018-12-22T09:49:04.175Z,3.40
2018-12-22T09:51:31.467Z,2.20
2018-12-22T09:53:58.793Z,3.25
2018-12-22T09:59:12.277Z,2.47
2018-12-22T10:01:39.668Z,2.52
2018-12-22T10:04:06.989Z,2.62
2018-12-22T10:06:34.319Z,2.00
2018-12-22T10:09:01.798Z,1.80
2018-12-22T10:11:29.120Z,1.82
2018-12-22T10:13:56.624Z,1.80
2018-12-22T10:16:23.864Z,1.87
2018-12-22T10:18:51.145Z,1.70
2018-12-22T10:21:18.430Z,1.40
2018-12-22T10:23:45.720Z,2.05
2018-12-22T10:26:13.041Z,1.70
2018-12-22T10:28:40.352Z,2.30
2018-12-22T10:31:07.698Z,3.30
2018-12-22T10:33:35.395Z,2.55
2018-12-22T10:36:02.741Z,2.95
2018-12-22T10:38:30.016Z,3.80
2018-12-22T10:40:57.748Z,3.10
2018-12-22T10:43:25.088Z,2.35
2018-12-22T10:45:52.420Z,2.10
2018-12-22T10:48:19.741Z,2.35
2018-12-22T10:50:47.076Z,3.55
2018-12-22T10:53:14.417Z,3.70
2018-12-22T10:55:41.784Z,3.60
2018-12-22T10:58:09.167Z,4.15
2018-12-22T11:00:36.728Z,5.08
2018-12-22T11:03:04.033Z,5.03
2018-12-22T11:05:31.353Z,5.60
2018-12-22T11:07:58.803Z,5.42
2018-12-22T11:10:26.557Z,5.50
2018-12-22T11:12:56.165Z,5.42
2018-12-22T11:15:23.475Z,6.30
2018-12-22T11:17:50.820Z,5.60
2018-12-22T11:20:18.162Z,7.10
2018-12-22T11:22:45.471Z,6.28
2018-12-22T11:25:16.092Z,4.67
2018-12-22T11:27:43.442Z,5.78
2018-12-22T11:30:12.529Z,5.42
2018-12-22T11:32:39.811Z,5.12
2018-12-22T11:35:07.171Z,5.15
2018-12-22T11:37:34.465Z,5.10
2018-12-22T11:40:02.065Z,5.08
2018-12-22T11:42:30.005Z,4.47
2018-12-22T11:44:57.408Z,5.45
2018-12-22T11:47:37.260Z,5.20
2018-12-22T11:50:04.989Z,5.85
2018-12-22T11:52:32.951Z,5.90
2018-12-22T11:55:00.351Z,5.40
2018-12-22T11:57:28.733Z,5.40
2018-12-22T12:00:01.602Z,6.75
2018-12-22T12:02:33.425Z,6.78
2018-12-22T12:05:00.817Z,5.83
2018-12-22T12:07:28.211Z,4.85
2018-12-22T12:09:55.531Z,5.00
2018-12-22T12:12:27.216Z,5.58
2018-12-22T12:14:54.552Z,4.05
2018-12-22T12:18:03.422Z,3.85
2018-12-22T12:20:36.811Z,4.30
2018-12-22T12:23:04.184Z,3.67
2018-12-22T12:25:31.623Z,3.75
2018-12-22T12:28:08.338Z,3.55
2018-12-22T12:30:35.697Z,3.90
2018-12-22T12:33:07.531Z,3.72
2018-12-22T12:35:34.944Z,3.98
2018-12-22T12:38:07.244Z,4.30
2018-12-22T12:40:36.368Z,4.78
2018-12-22T12:43:04.347Z,3.30
2018-12-22T12:45:31.708Z,3.50
2018-12-22T12:47:59.185Z,3.92
2018-12-22T12:50:26.537Z,3.15
2018-12-22T12:52:53.837Z,3.12
2018-12-22T12:55:21.154Z,2.40
2018-12-22T13:06:10.423Z,4.37
2018-12-22T13:08:37.721Z,2.90
2018-12-22T13:11:05.052Z,2.25
2018-12-22T13:13:38.459Z,2.37
2018-12-22T13:16:05.777Z,2.45
2018-12-22T13:18:33.080Z,2.08
2018-12-22T13:21:00.811Z,2.62
2018-12-22T13:23:28.136Z,2.70
2018-12-22T13:25:55.457Z,2.92
2018-12-22T13:28:23.033Z,3.10
2018-12-22T13:39:12.597Z,2.77
2018-12-22T13:41:40.041Z,3.25
2018-12-22T13:44:07.356Z,3.25
2018-12-22T13:46:34.671Z,2.90
2018-12-22T13:49:02.416Z,2.80
2018-12-22T13:51:29.976Z,3.10
2018-12-22T13:53:57.594Z,2.92
2018-12-22T13:56:24.916Z,2.90
2018-12-22T13:58:52.242Z,2.85
2018-12-22T14:01:20.420Z,2.60
2018-12-22T14:03:47.732Z,3.08
2018-12-22T14:06:17.436Z,3.20
2018-12-22T14:08:44.789Z,2.85
2018-12-22T14:11:12.080Z,2.70
2018-12-22T14:13:39.410Z,3.33
2018-12-22T14:16:09.665Z,2.55
2018-12-22T14:18:39.241Z,2.95
2018-12-22T14:21:06.528Z,2.95
2018-12-22T14:23:36.903Z,3.17
2018-12-22T14:26:04.188Z,3.00
2018-12-22T14:28:31.479Z,3.08
2018-12-22T14:30:58.773Z,3.30
2018-12-22T14:33:26.077Z,3.55
2018-12-22T14:35:55.625Z,3.30
2018-12-22T14:38:22.929Z,3.20
2018-12-22T14:40:50.248Z,3.70
2018-12-22T14:43:17.558Z,3.25
2018-12-22T14:45:44.896Z,3.65
2018-12-22T14:48:12.175Z,3.95
2018-12-22T14:50:39.516Z,3.45
2018-12-22T14:53:06.797Z,4.60
2018-12-22T14:55:34.213Z,3.75
2018-12-22T14:58:04.433Z,3.00
2018-12-22T15:00:31.776Z,3.83
2018-12-22T15:02:59.186Z,3.22
2018-12-22T15:05:26.503Z,3.62
2018-12-22T15:07:53.816Z,3.27
2018-12-22T15:10:21.305Z,3.72
2018-12-22T15:12:48.585Z,3.30
2018-12-22T15:15:24.174Z,2.60
2018-12-22T15:17:51.541Z,3.15
2018-12-22T15:20:19.932Z,2.25
2018-12-22T15:28:23.613Z,1.65
2018-12-22T15:30:50.896Z,1.70
2018-12-22T15:33:18.224Z,1.60
2018-12-22T15:35:45.511Z,2.00
2018-12-22T15:38:12.863Z,1.87
2018-12-22T15:40:40.173Z,1.90
2018-12-22T15:43:07.531Z,1.50
2018-12-22T15:45:34.854Z,1.50
2018-12-22T15:48:02.164Z,1.70
2018-12-22T15:50:30.384Z,1.82
2018-12-22T15:52:57.923Z,1.70
2018-12-22T15:55:25.254Z,1.67
2018-12-22T15:57:52.580Z,1.70
2018-12-22T16:00:19.914Z,1.90
2018-12-22T16:02:53.058Z,2.45
2018-12-22T16:05:16.638Z,2.40
2018-12-22T16:07:43.995Z,2.98
2018-12-22T16:10:12.008Z,3.55
2018-12-22T16:12:39.483Z,2.80
2018-12-22T16:15:09.249Z,3.02
2018-12-22T16:17:36.593Z,2.77
2018-12-22T16:20:04.309Z,2.55
2018-12-22T16:22:31.589Z,1.77
2018-12-22T16:24:58.892Z,1.92
2018-12-22T16:27:26.212Z,2.08
2018-12-22T16:29:53.507Z,2.10
2018-12-22T16:32:20.816Z,1.82
2018-12-22T16:34:48.135Z,1.72
2018-12-22T16:37:15.504Z,1.98
2018-12-22T16:39:42.842Z,1.70
2018-12-22T16:42:10.156Z,1.90
2018-12-22T16:44:37.432Z,2.35
2018-12-22T16:47:04.757Z,2.40
2018-12-22T16:49:32.192Z,2.87
2018-12-22T16:51:59.464Z,2.70
2018-12-22T16:54:26.765Z,3.10
2018-12-22T16:56:54.156Z,4.22
2018-12-22T16:59:21.484Z,3.80
2018-12-22T17:02:57.083Z,3.87
2018-12-22T17:05:24.424Z,3.60
2018-12-22T17:07:51.761Z,4.33
2018-12-22T17:12:52.657Z,3.52
2018-12-22T17:15:22.498Z,3.70
2018-12-22T17:17:49.310Z,4.20
2018-12-22T17:20:16.733Z,4.15
2018-12-22T17:23:47.614Z,4.12
2018-12-22T17:26:14.910Z,3.65
2018-12-22T17:28:42.223Z,3.37
2018-12-22T17:31:09.552Z,3.45
2018-12-22T17:33:36.818Z,3.20
2018-12-22T17:36:04.364Z,3.10
2018-12-22T17:38:31.739Z,4.53
2018-12-22T17:40:59.765Z,3.22
2018-12-22T17:43:27.273Z,3.60
2018-12-22T17:45:54.658Z,3.20
2018-12-22T17:48:21.955Z,2.83
2018-12-22T17:50:49.309Z,3.05
2018-12-22T17:53:16.634Z,2.27
2018-12-22T17:55:44.058Z,2.77
2018-12-22T17:58:11.378Z,2.80
2018-12-22T18:00:38.642Z,2.70
2018-12-22T18:03:07.162Z,2.85
2018-12-22T18:05:34.579Z,2.75
2018-12-22T18:08:02.038Z,2.90
2018-12-22T18:10:29.500Z,3.05
2018-12-22T18:12:56.939Z,2.50
2018-12-22T18:15:24.492Z,2.90
2018-12-22T18:17:52.310Z,3.27
2018-12-22T18:20:19.922Z,2.65
2018-12-22T18:25:21.035Z,2.80
2018-12-22T18:27:49.761Z,2.95
2018-12-22T18:30:17.143Z,3.00
2018-12-22T18:32:48.790Z,3.42
2018-12-22T18:35:16.309Z,3.80
2018-12-22T18:37:43.672Z,3.58
2018-12-22T18:40:13.119Z,3.20
2018-12-22T18:42:44.769Z,3.00
2018-12-22T18:45:13.698Z,3.70
2018-12-22T18:47:41.107Z,3.33
2018-12-22T18:52:35.498Z,3.17
2018-12-22T18:55:03.470Z,3.40
2018-12-22T18:57:31.112Z,4.25
2018-12-22T18:59:58.518Z,4.45
2018-12-22T19:02:25.886Z,3.60
2018-12-22T19:04:53.201Z,4.00
2018-12-22T19:07:20.552Z,4.60
2018-12-22T19:09:49.495Z,5.08
2018-12-22T19:12:17.652Z,4.33
2018-12-22T19:14:50.531Z,4.65
2018-12-22T19:17:17.848Z,4.62
2018-12-22T19:19:45.169Z,5.55
2018-12-22T19:24:40.110Z,6.05
2018-12-22T19:27:07.490Z,6.17
2018-12-22T19:29:34.784Z,7.47
2018-12-22T19:32:02.760Z,6.67
2018-12-22T19:34:30.327Z,5.97
2018-12-22T19:36:57.797Z,5.95
2018-12-22T19:39:25.189Z,5.72
2018-12-22T19:41:52.618Z,5.15
2018-12-22T19:44:20.725Z,5.00
2018-12-22T19:46:48.148Z,5.42
2018-12-22T19:49:15.536Z,5.10
2018-12-22T19:51:42.843Z,6.20
2018-12-22T19:54:10.243Z,4.85
2018-12-22T19:56:37.604Z,4.62
2018-12-22T19:59:05.568Z,5.08
2018-12-22T20:01:33.213Z,4.42
2018-12-22T20:04:02.199Z,4.53
2018-12-22T20:06:29.861Z,4.30
2018-12-22T20:08:57.625Z,5.20
2018-12-22T20:11:26.036Z,3.90
2018-12-22T20:13:53.539Z,4.00
2018-12-22T20:16:20.912Z,3.92
2018-12-22T20:18:48.975Z,4.17
2018-12-22T20:21:20.750Z,6.25
2018-12-22T20:23:48.943Z,4.50
2018-12-22T20:26:16.282Z,3.98
2018-12-22T20:28:43.650Z,4.62
2018-12-22T20:31:10.974Z,4.22
2018-12-22T20:33:38.356Z,3.05
2018-12-22T20:36:05.787Z,3.20
2018-12-22T20:38:33.206Z,4.05
2018-12-22T20:41:01.895Z,3.10
2018-12-22T20:43:30.302Z,3.15
2018-12-22T20:45:57.671Z,5.03
2018-12-22T20:48:25.101Z,3.60
2018-12-22T20:50:52.496Z,3.60
2018-12-22T20:53:20.775Z,2.60
2018-12-22T20:55:48.512Z,2.67
2018-12-22T20:58:17.138Z,3.50
2018-12-22T21:00:50.217Z,3.00
2018-12-22T21:03:18.923Z,3.25
2018-12-22T21:05:50.091Z,4.00
2018-12-22T21:08:19.068Z,4.20
2018-12-22T21:10:47.498Z,3.83
2018-12-22T21:13:16.147Z,4.40
2018-12-22T21:15:45.859Z,5.55
2018-12-22T21:18:14.165Z,5.62
2018-12-22T21:20:42.443Z,4.50
2018-12-22T21:23:10.710Z,5.33
2018-12-22T21:25:50.732Z,4.70
2018-12-22T21:28:18.254Z,5.90
2018-12-22T21:30:47.259Z,7.03
2018-12-22T21:33:14.677Z,8.63
2018-12-22T21:35:52.699Z,8.78
2018-12-22T21:38:11.433Z,6.60
2018-12-22T21:40:38.788Z,7.97
2018-12-22T21:43:06.160Z,7.40
2018-12-22T21:45:33.692Z,8.63
2018-12-22T21:48:01.169Z,7.15
2018-12-22T21:50:29.579Z,7.97
2018-12-22T21:52:56.963Z,6.85
2018-12-22T21:55:28.522Z,6.92
2018-12-22T21:57:55.990Z,7.40
2018-12-22T22:00:23.609Z,7.20
2018-12-22T22:02:51.006Z,6.50
2018-12-22T22:05:18.327Z,7.15
2018-12-22T22:07:45.680Z,7.12
2018-12-22T22:10:13.169Z,6.90
2018-12-22T22:12:40.607Z,7.53
2018-12-22T22:15:09.065Z,6.87
2018-12-22T22:17:36.494Z,7.12
2018-12-22T22:20:03.941Z,6.85
2018-12-22T22:22:31.326Z,7.35
2018-12-22T22:24:59.685Z,7.78
2018-12-22T22:27:27.075Z,7.72
2018-12-22T22:29:54.485Z,7.92
2018-12-22T22:32:21.855Z,7.30
2018-12-22T22:34:49.224Z,8.20
2018-12-22T22:37:16.502Z,7.95
2018-12-22T22:39:43.855Z,7.92
2018-12-22T22:42:11.216Z,8.15
2018-12-22T22:44:38.605Z,8.08
2018-12-22T22:47:05.960Z,8.03
2018-12-22T22:49:33.277Z,6.85
2018-12-22T22:52:00.690Z,7.87
2018-12-22T22:54:28.036Z,6.65
2018-12-22T22:56:55.485Z,7.65
2018-12-22T22:59:22.882Z,7.35
2018-12-22T23:01:50.175Z,7.05
2018-12-22T23:04:17.527Z,7.15
2018-12-22T23:06:44.849Z,6.95
2018-12-22T23:09:12.864Z,6.70
2018-12-22T23:11:40.180Z,8.03
2018-12-22T23:14:07.676Z,7.00
2018-12-22T23:16:35.049Z,7.80
2018-12-22T23:19:02.387Z,6.10
2018-12-22T23:21:30.407Z,7.72
2018-12-22T23:23:57.903Z,6.95
2018-12-22T23:26:25.348Z,7.60
2018-12-22T23:28:52.691Z,6.67
2018-12-22T23:31:20.096Z,6.70
2018-12-22T23:33:47.486Z,5.75
2018-12-22T23:36:15.401Z,6.00
2018-12-22T23:38:42.783Z,6.37
2018-12-22T23:41:10.105Z,6.42
2018-12-22T23:43:37.442Z,5.12
2018-12-22T23:46:04.825Z,5.70
2018-12-22T23:48:32.148Z,5.12
2018-12-22T23:50:59.494Z,5.17
2018-12-22T23:53:26.826Z,5.15
2018-12-22T23:55:54.206Z,7.05
2018-12-22T23:58:21.552Z,5.45
